X  Fermer Données météorologiques d'aviation de Metar     EHKD De Kooy Airport
Température
18°C Température
13°C Point de rosée
73% Humidité



Vent
23 KM/H
14 MPH
6 M/S
12 KTS



250°
OSO
Conditions actuelles

Partiellement nuageux Partiellement nuageux
Pression 1012.87 (hPa) - 29.91 (inHg)
Visibilité 6 (mile) - 9.7 (km)
Aéroport
Code de l'aéroport EHKD

Emplacement: De Kooy Airport
Distance: 34 (km)

Metar:
EHKD 221425Z AUTO 25012KT 220V280 9999 FEW014 18/13 Q1013 BLU TEMPO SCT013

Temps: 22-06-2024 16:25 CEST